Wetterdaten: Donnerstag, 01.03.2018
Datum Zeit Temp. A. Aussen2m Boden Feuchte A. Feuchte 2 Luftdruck Regen Wind Richtung Richtung Sonnenschein
01.03.2018 00:00 -7,5 C -7,3 C -2,5 C 61 % 61 % 1014,0 hPa 0,0 l/m 16,3 km/h (3 Bft) O-NO 65 0 min
01.03.2018 00:05 -7,5 C -7,3 C -2,5 C 61 % 61 % 1014,0 hPa 0,0 l/m 8,5 km/h (2 Bft) O 95 0 min
01.03.2018 00:10 -7,5 C -7,3 C -2,5 C 61 % 61 % 1014,0 hPa 0,0 l/m 6,1 km/h (2 Bft) O-NO 75 0 min
01.03.2018 00:15 -7,4 C -7,3 C -2,5 C 61 % 61 % 1014,0 hPa 0,0 l/m 15,7 km/h (3 Bft) O-NO 70 0 min
01.03.2018 00:20 -7,4 C -7,3 C -2,5 C 61 % 61 % 1013,0 hPa 0,0 l/m 21,2 km/h (4 Bft) O-NO 75 0 min
01.03.2018 00:25 -7,4 C -7,2 C -2,5 C 61 % 61 % 1013,0 hPa 0,0 l/m 4,2 km/h (1 Bft) NO 45 0 min
01.03.2018 00:30 -7,3 C -7,2 C -2,5 C 61 % 61 % 1013,0 hPa 0,0 l/m 20,6 km/h (4 Bft) O 95 0 min
01.03.2018 00:35 -7,3 C -7,2 C -2,5 C 61 % 61 % 1014,0 hPa 0,0 l/m 11,5 km/h (2 Bft) N-NO 25 0 min
01.03.2018 00:40 -7,3 C -7,2 C -2,5 C 61 % 61 % 1014,0 hPa 0,0 l/m 11,5 km/h (2 Bft) N-NO 25 0 min
01.03.2018 00:45 -7,3 C -7,2 C -2,5 C 60 % 61 % 1014,0 hPa 0,0 l/m 11,5 km/h (2 Bft) O-NO 70 0 min
01.03.2018 00:50 -7,3 C -7,2 C -2,5 C 60 % 61 % 1013,0 hPa 0,0 l/m 11,5 km/h (2 Bft) O 85 0 min
01.03.2018 00:55 -7,3 C -7,2 C -2,5 C 60 % 61 % 1013,0 hPa 0,0 l/m 9,7 km/h (2 Bft) O 85 0 min
01.03.2018 01:00 -7,3 C -7,2 C -2,5 C 60 % 61 % 1013,0 hPa 0,0 l/m 9,1 km/h (2 Bft) O 85 0 min
01.03.2018 01:05 -7,3 C -7,2 C -2,5 C 60 % 61 % 1012,0 hPa 0,0 l/m 13,3 km/h (3 Bft) O 85 0 min
01.03.2018 01:10 -7,3 C -7,2 C -2,5 C 60 % 60 % 1012,0 hPa 0,0 l/m 11,5 km/h (2 Bft) O 85 0 min
01.03.2018 01:15 -7,3 C -7,2 C -2,5 C 60 % 60 % 1012,0 hPa 0,0 l/m 12,1 km/h (2 Bft) O 90 0 min
01.03.2018 01:20 -7,3 C -7,1 C -2,5 C 60 % 60 % 1012,0 hPa 0,0 l/m 12,7 km/h (3 Bft) O-NO 75 0 min
01.03.2018 01:25 -7,3 C -7,1 C -2,5 C 60 % 60 % 1012,0 hPa 0,0 l/m 10,9 km/h (2 Bft) O-NO 60 0 min
01.03.2018 01:30 -7,3 C -7,1 C -2,5 C 60 % 60 % 1012,0 hPa 0,0 l/m 13,9 km/h (3 Bft) O 95 0 min
01.03.2018 01:35 -7,3 C -7,1 C -2,5 C 60 % 60 % 1012,0 hPa 0,0 l/m 18,2 km/h (3 Bft) NO 50 0 min
01.03.2018 01:40 -7,3 C -7,1 C -2,5 C 60 % 60 % 1012,0 hPa 0,0 l/m 10,3 km/h (2 Bft) O 85 0 min
01.03.2018 01:45 -7,2 C -7,1 C -2,5 C 60 % 60 % 1012,0 hPa 0,0 l/m 16,9 km/h (3 Bft) N 5 0 min
01.03.2018 01:50 -7,2 C -7,1 C -2,5 C 60 % 60 % 1012,0 hPa 0,0 l/m 10,9 km/h (2 Bft) O 90 0 min
01.03.2018 01:55 -7,2 C -7,1 C -2,5 C 60 % 60 % 1012,0 hPa 0,0 l/m 21,2 km/h (4 Bft) O 100 0 min
01.03.2018 02:00 -7,2 C -7,1 C -2,5 C 60 % 60 % 1012,0 hPa 0,0 l/m 14,5 km/h (3 Bft) SO 135 0 min
01.03.2018 02:05 -7,2 C -7,0 C -2,5 C 60 % 60 % 1012,0 hPa 0,0 l/m 17,6 km/h (3 Bft) N 0 0 min
01.03.2018 02:10 -7,2 C -7,0 C -2,5 C 60 % 60 % 1012,0 hPa 0,0 l/m 16,3 km/h (3 Bft) SO 130 0 min
01.03.2018 02:15 -7,2 C -7,1 C -2,5 C 60 % 60 % 1012,0 hPa 0,0 l/m 19,4 km/h (3 Bft) N-NO 15 0 min
01.03.2018 02:20 -7,2 C -7,0 C -2,5 C 59 % 60 % 1012,0 hPa 0,0 l/m 10,3 km/h (2 Bft) NO 45 0 min
01.03.2018 02:25 -7,2 C -7,1 C -2,5 C 59 % 60 % 1012,0 hPa 0,0 l/m 9,7 km/h (2 Bft) O-NO 70 0 min
01.03.2018 02:30 -7,2 C -7,1 C -2,5 C 59 % 60 % 1012,0 hPa 0,0 l/m 14,5 km/h (3 Bft) N-NO 20 0 min
01.03.2018 02:35 -7,2 C -7,1 C -2,5 C 59 % 60 % 1012,0 hPa 0,0 l/m 20,6 km/h (4 Bft) O-SO 105 0 min
01.03.2018 02:40 -7,2 C -7,1 C -2,5 C 59 % 60 % 1012,0 hPa 0,0 l/m 23,6 km/h (4 Bft) O 80 0 min
01.03.2018 02:45 -7,2 C -7,1 C -2,5 C 59 % 60 % 1012,0 hPa 0,0 l/m 13,9 km/h (3 Bft) O-NO 70 0 min
01.03.2018 02:50 -7,3 C -7,1 C -2,5 C 60 % 60 % 1011,0 hPa 0,0 l/m 14,5 km/h (3 Bft) O-NO 60 0 min
01.03.2018 02:55 -7,3 C -7,1 C -2,5 C 60 % 60 % 1011,0 hPa 0,0 l/m 15,7 km/h (3 Bft) O 85 0 min
01.03.2018 03:00 -7,3 C -7,1 C -2,5 C 60 % 60 % 1011,0 hPa 0,0 l/m 15,7 km/h (3 Bft) O-NO 75 0 min
01.03.2018 03:05 -7,2 C -7,1 C -2,5 C 60 % 60 % 1012,0 hPa 0,0 l/m 20,0 km/h (4 Bft) O-NO 70 0 min
01.03.2018 03:10 -7,3 C -7,1 C -2,5 C 60 % 60 % 1012,0 hPa 0,0 l/m 12,7 km/h (3 Bft) O 100 0 min
01.03.2018 03:15 -7,3 C -7,2 C -2,5 C 60 % 60 % 1012,0 hPa 0,0 l/m 10,9 km/h (2 Bft) NO 35 0 min
01.03.2018 03:20 -7,4 C -7,2 C -2,5 C 60 % 60 % 1011,0 hPa 0,0 l/m 9,7 km/h (2 Bft) O-NO 70 0 min
01.03.2018 03:25 -7,4 C -7,2 C -2,5 C 60 % 60 % 1011,0 hPa 0,0 l/m 17,6 km/h (3 Bft) N-NO 20 0 min
01.03.2018 03:30 -7,4 C -7,2 C -2,5 C 60 % 60 % 1011,0 hPa 0,0 l/m 13,3 km/h (3 Bft) SO 135 0 min
01.03.2018 03:35 -7,4 C -7,2 C -2,5 C 60 % 60 % 1011,0 hPa 0,0 l/m 13,3 km/h (3 Bft) N 0 0 min
01.03.2018 03:40 -7,4 C -7,2 C -2,5 C 60 % 60 % 1011,0 hPa 0,0 l/m 13,3 km/h (3 Bft) O-NO 70 0 min
01.03.2018 03:45 -7,4 C -7,3 C -2,5 C 60 % 60 % 1011,0 hPa 0,0 l/m 10,3 km/h (2 Bft) SO 130 0 min
01.03.2018 03:50 -7,4 C -7,3 C -2,5 C 60 % 61 % 1010,0 hPa 0,0 l/m 12,7 km/h (3 Bft) O 80 0 min
01.03.2018 03:55 -7,4 C -7,3 C -2,5 C 60 % 61 % 1010,0 hPa 0,0 l/m 16,9 km/h (3 Bft) O 90 0 min
01.03.2018 04:00 -7,4 C -7,2 C -2,5 C 60 % 61 % 1010,0 hPa 0,0 l/m 10,9 km/h (2 Bft) O-NO 70 0 min
01.03.2018 04:05 -7,4 C -7,2 C -2,5 C 60 % 60 % 1010,0 hPa 0,0 l/m 10,3 km/h (2 Bft) O 100 0 min
01.03.2018 04:10 -7,3 C -7,2 C -2,5 C 60 % 60 % 1010,0 hPa 0,0 l/m 11,5 km/h (2 Bft) O-NO 60 0 min
01.03.2018 04:15 -7,4 C -7,3 C -2,5 C 60 % 61 % 1010,0 hPa 0,0 l/m 12,1 km/h (2 Bft) O 100 0 min
01.03.2018 04:20 -7,4 C -7,2 C -2,5 C 60 % 61 % 1010,0 hPa 0,0 l/m 8,5 km/h (2 Bft) O-NO 70 0 min
01.03.2018 04:25 -7,3 C -7,2 C -2,5 C 60 % 60 % 1010,0 hPa 0,0 l/m 10,3 km/h (2 Bft) SO 145 0 min
01.03.2018 04:30 -7,3 C -7,2 C -2,5 C 60 % 60 % 1010,0 hPa 0,0 l/m 10,9 km/h (2 Bft) O 80 0 min
01.03.2018 04:35 -7,3 C -7,2 C -2,5 C 60 % 60 % 1010,0 hPa 0,0 l/m 8,5 km/h (2 Bft) O-NO 65 0 min
01.03.2018 04:40 -7,3 C -7,2 C -2,5 C 60 % 61 % 1010,0 hPa 0,0 l/m 8,5 km/h (2 Bft) NO 35 0 min
01.03.2018 04:45 -7,3 C -7,2 C -2,5 C 60 % 61 % 1010,0 hPa 0,0 l/m 10,9 km/h (2 Bft) N-NO 15 0 min
01.03.2018 04:50 -7,3 C -7,1 C -2,5 C 60 % 60 % 1010,0 hPa 0,0 l/m 7,9 km/h (2 Bft) O-NO 75 0 min
01.03.2018 04:55 -7,2 C -7,1 C -2,5 C 60 % 60 % 1010,0 hPa 0,0 l/m 12,1 km/h (2 Bft) O 80 0 min
01.03.2018 05:00 -7,2 C -7,1 C -2,5 C 60 % 60 % 1010,0 hPa 0,0 l/m 9,1 km/h (2 Bft) O-SO 120 0 min
01.03.2018 05:05 -7,1 C -7,0 C -2,5 C 60 % 60 % 1010,0 hPa 0,0 l/m 10,9 km/h (2 Bft) SO 130 0 min
01.03.2018 05:10 -7,1 C -7,0 C -2,5 C 59 % 60 % 1010,0 hPa 0,0 l/m 13,9 km/h (3 Bft) O 85 0 min
01.03.2018 05:15 -7,1 C -7,0 C -2,5 C 59 % 60 % 1010,0 hPa 0,0 l/m 16,3 km/h (3 Bft) O 90 0 min
01.03.2018 05:20 -7,1 C -7,0 C -2,5 C 59 % 60 % 1009,0 hPa 0,0 l/m 12,7 km/h (3 Bft) O-SO 110 0 min
01.03.2018 05:25 -7,1 C -7,0 C -2,5 C 59 % 60 % 1009,0 hPa 0,0 l/m 13,3 km/h (3 Bft) O-NO 60 0 min
01.03.2018 05:30 -7,0 C -7,0 C -2,5 C 59 % 60 % 1009,0 hPa 0,0 l/m 15,1 km/h (3 Bft) O 100 0 min
01.03.2018 05:35 -7,0 C -6,9 C -2,5 C 59 % 60 % 1009,0 hPa 0,0 l/m 7,3 km/h (2 Bft) O 85 0 min
01.03.2018 05:40 -7,0 C -6,9 C -2,5 C 59 % 60 % 1009,0 hPa 0,0 l/m 8,5 km/h (2 Bft) O-NO 75 0 min
01.03.2018 05:45 -7,0 C -6,9 C -2,5 C 59 % 60 % 1009,0 hPa 0,0 l/m 12,1 km/h (2 Bft) O-NO 60 0 min
01.03.2018 05:50 -6,9 C -6,8 C -2,5 C 59 % 60 % 1010,0 hPa 0,0 l/m 8,5 km/h (2 Bft) SO 135 0 min
01.03.2018 05:55 -7,0 C -6,8 C -2,5 C 59 % 60 % 1010,0 hPa 0,0 l/m 7,9 km/h (2 Bft) NO 45 0 min
01.03.2018 06:00 -7,0 C -6,8 C -2,5 C 59 % 60 % 1010,0 hPa 0,0 l/m 13,9 km/h (3 Bft) NO 40 0 min
01.03.2018 06:05 -6,9 C -6,8 C -2,5 C 59 % 60 % 1009,0 hPa 0,0 l/m 17,6 km/h (3 Bft) O 80 0 min
01.03.2018 06:10 -6,9 C -6,8 C -2,5 C 59 % 60 % 1009,0 hPa 0,0 l/m 5,4 km/h (2 Bft) NO 45 0 min
01.03.2018 06:15 -6,9 C -6,8 C -2,5 C 59 % 60 % 1009,0 hPa 0,0 l/m 14,5 km/h (3 Bft) O 90 0 min
01.03.2018 06:20 -6,9 C -6,8 C -2,5 C 59 % 60 % 1010,0 hPa 0,0 l/m 13,3 km/h (3 Bft) O-NO 75 0 min
01.03.2018 06:25 -6,9 C -6,8 C -2,5 C 59 % 60 % 1010,0 hPa 0,0 l/m 16,9 km/h (3 Bft) NO 50 0 min
01.03.2018 06:30 -6,9 C -6,8 C -2,5 C 59 % 60 % 1010,0 hPa 0,0 l/m 23,6 km/h (4 Bft) NO 45 0 min
01.03.2018 06:35 -6,9 C -6,8 C -2,5 C 59 % 60 % 1010,0 hPa 0,0 l/m 16,3 km/h (3 Bft) NO 40 0 min
01.03.2018 06:40 -6,9 C -6,8 C -2,5 C 59 % 60 % 1010,0 hPa 0,0 l/m 12,1 km/h (2 Bft) O 80 0 min
01.03.2018 06:45 -6,9 C -6,8 C -2,5 C 59 % 59 % 1010,0 hPa 0,0 l/m 16,3 km/h (3 Bft) O 80 0 min
01.03.2018 06:50 -6,9 C -6,8 C -2,5 C 59 % 60 % 1010,0 hPa 0,0 l/m 15,1 km/h (3 Bft) O 90 0 min
01.03.2018 06:55 -6,9 C -6,8 C -2,5 C 59 % 59 % 1010,0 hPa 0,0 l/m 21,8 km/h (4 Bft) O 100 0 min
01.03.2018 07:00 -6,8 C -6,8 C -2,5 C 59 % 59 % 1010,0 hPa 0,0 l/m 15,7 km/h (3 Bft) O-NO 65 0 min
01.03.2018 07:05 -6,8 C -6,7 C -2,5 C 59 % 59 % 1010,0 hPa 0,0 l/m 10,3 km/h (2 Bft) O 95 0 min
01.03.2018 07:10 -6,8 C -6,7 C -2,5 C 58 % 59 % 1010,0 hPa 0,0 l/m 13,9 km/h (3 Bft) O 80 0 min
01.03.2018 07:15 -6,8 C -6,7 C -2,5 C 58 % 59 % 1010,0 hPa 0,0 l/m 15,1 km/h (3 Bft) O-NO 60 0 min
01.03.2018 07:20 -6,8 C -6,7 C -2,5 C 58 % 59 % 1009,0 hPa 0,0 l/m 15,1 km/h (3 Bft) O 85 0 min
01.03.2018 07:25 -6,8 C -6,7 C -2,9 C 59 % 59 % 1009,0 hPa 0,0 l/m 10,9 km/h (2 Bft) O 95 0 min
01.03.2018 07:30 -6,8 C -6,7 C -2,9 C 58 % 59 % 1009,0 hPa 0,0 l/m 19,4 km/h (3 Bft) O-NO 65 0 min
01.03.2018 07:35 -6,8 C -6,7 C -2,9 C 58 % 59 % 1009,0 hPa 0,0 l/m 19,4 km/h (3 Bft) O-NO 65 0 min
01.03.2018 07:40 -6,7 C -6,6 C -2,9 C 58 % 59 % 1009,0 hPa 0,0 l/m 16,9 km/h (3 Bft) O-SO 115 0 min
01.03.2018 07:45 -6,7 C -6,6 C -2,9 C 58 % 59 % 1009,0 hPa 0,0 l/m 15,7 km/h (3 Bft) O-NO 60 0 min
01.03.2018 07:50 -6,7 C -6,6 C -2,9 C 58 % 59 % 1009,0 hPa 0,0 l/m 9,1 km/h (2 Bft) O-NO 75 0 min
01.03.2018 07:55 -6,7 C -6,6 C -2,9 C 58 % 59 % 1009,0 hPa 0,0 l/m 24,8 km/h (4 Bft) O 85 0 min
01.03.2018 08:00 -6,7 C -6,6 C -2,9 C 58 % 59 % 1009,0 hPa 0,0 l/m 16,3 km/h (3 Bft) O-NO 75 0 min
01.03.2018 08:05 -6,7 C -6,6 C -2,9 C 58 % 59 % 1008,0 hPa 0,0 l/m 16,3 km/h (3 Bft) O-SO 115 0 min
01.03.2018 08:10 -6,5 C -6,6 C -2,9 C 57 % 59 % 1008,0 hPa 0,0 l/m 23,0 km/h (4 Bft) O-NO 70 0 min
01.03.2018 08:15 -6,4 C -6,5 C -2,9 C 57 % 59 % 1008,0 hPa 0,0 l/m 23,0 km/h (4 Bft) O-SO 105 2 min
01.03.2018 08:20 -6,4 C -6,4 C -2,9 C 57 % 59 % 1009,0 hPa 0,0 l/m 23,0 km/h (4 Bft) O-SO 110 0 min
01.03.2018 08:25 -6,3 C -6,3 C -2,9 C 57 % 59 % 1009,0 hPa 0,0 l/m 26,7 km/h (4 Bft) O-NO 75 0 min
01.03.2018 08:30 -6,3 C -6,3 C -2,9 C 57 % 58 % 1009,0 hPa 0,0 l/m 29,4 km/h (5 Bft) O-NO 60 0 min
01.03.2018 08:35 -6,2 C -6,2 C -2,9 C 56 % 58 % 1008,0 hPa 0,0 l/m 22,4 km/h (4 Bft) O-SO 105 2 min
01.03.2018 08:40 -6,1 C -6,1 C -2,9 C 56 % 58 % 1008,0 hPa 0,0 l/m 19,4 km/h (3 Bft) O-NO 70 3 min
01.03.2018 08:45 -6,1 C -6,1 C -2,9 C 56 % 58 % 1008,0 hPa 0,0 l/m 18,8 km/h (3 Bft) O 95 2 min
01.03.2018 08:50 -6,1 C -6,1 C -2,9 C 56 % 58 % 1008,0 hPa 0,0 l/m 12,1 km/h (2 Bft) O-SO 110 0 min
01.03.2018 08:55 -6,0 C -6,1 C -2,9 C 56 % 58 % 1008,0 hPa 0,0 l/m 15,1 km/h (3 Bft) N 355 0 min
01.03.2018 09:00 -6,1 C -6,1 C -2,9 C 56 % 57 % 1008,0 hPa 0,0 l/m 26,3 km/h (4 Bft) O 100 2 min
01.03.2018 09:05 -6,0 C -6,1 C -2,9 C 56 % 57 % 1009,0 hPa 0,0 l/m 18,2 km/h (3 Bft) O-SO 105 3 min
01.03.2018 09:10 -5,8 C -5,9 C -2,9 C 55 % 57 % 1009,0 hPa 0,0 l/m 23,0 km/h (4 Bft) O-NO 70 5 min
01.03.2018 09:15 -5,8 C -5,7 C -2,9 C 55 % 57 % 1009,0 hPa 0,0 l/m 15,7 km/h (3 Bft) SO 130 2 min
01.03.2018 09:20 -5,5 C -5,7 C -2,9 C 54 % 57 % 1008,0 hPa 0,0 l/m 23,0 km/h (4 Bft) SO 125 8 min
01.03.2018 09:25 -5,5 C -5,6 C -2,9 C 54 % 56 % 1008,0 hPa 0,0 l/m 27,8 km/h (5 Bft) SO 125 5 min
01.03.2018 09:30 -5,4 C -5,5 C -2,9 C 54 % 56 % 1008,0 hPa 0,0 l/m 27,8 km/h (5 Bft) NW 305 3 min
01.03.2018 09:35 -5,3 C -5,3 C -2,9 C 53 % 56 % 1007,0 hPa 0,0 l/m 29,0 km/h (5 Bft) O-SO 120 3 min
01.03.2018 09:40 -5,1 C -5,3 C -2,9 C 53 % 55 % 1007,0 hPa 0,0 l/m 26,0 km/h (4 Bft) O-SO 105 5 min
01.03.2018 09:45 -5,1 C -5,2 C -2,9 C 52 % 55 % 1007,0 hPa 0,0 l/m 18,8 km/h (3 Bft) O 95 3 min
01.03.2018 09:50 -5,0 C -5,1 C -2,9 C 52 % 55 % 1008,0 hPa 0,0 l/m 17,6 km/h (3 Bft) NO 45 3 min
01.03.2018 09:55 -4,9 C -5,0 C -2,9 C 52 % 54 % 1008,0 hPa 0,0 l/m 20,0 km/h (4 Bft) O-SO 120 7 min
01.03.2018 10:00 -4,7 C -4,8 C -2,9 C 51 % 54 % 1008,0 hPa 0,0 l/m 29,4 km/h (5 Bft) O 80 6 min
01.03.2018 10:05 -4,5 C -4,8 C -2,9 C 51 % 54 % 1007,0 hPa 0,0 l/m 24,2 km/h (4 Bft) NO 55 5 min
01.03.2018 10:10 -4,0 C -4,4 C -2,9 C 50 % 53 % 1007,0 hPa 0,0 l/m 31,7 km/h (5 Bft) O 100 5 min
01.03.2018 10:15 -3,9 C -4,3 C -2,9 C 49 % 53 % 1007,0 hPa 0,0 l/m 23,0 km/h (4 Bft) NO 40 5 min
01.03.2018 10:20 -3,6 C -4,0 C -2,9 C 48 % 52 % 1007,0 hPa 0,0 l/m 21,2 km/h (4 Bft) O-SO 115 5 min
01.03.2018 10:25 -3,6 C -3,9 C -2,9 C 48 % 51 % 1007,0 hPa 0,0 l/m 35,6 km/h (5 Bft) O 90 5 min
01.03.2018 10:30 -3,4 C -3,7 C -2,9 C 47 % 51 % 1007,0 hPa 0,0 l/m 23,6 km/h (4 Bft) O-SO 105 5 min
01.03.2018 10:35 -3,5 C -3,7 C -2,5 C 47 % 50 % 1005,9 hPa 0,0 l/m 26,7 km/h (4 Bft) NO 50 3 min
01.03.2018 10:40 -3,3 C -3,5 C -2,5 C 47 % 50 % 1005,9 hPa 0,0 l/m 28,2 km/h (5 Bft) O 85 7 min
01.03.2018 10:45 -3,1 C -3,5 C -2,5 C 46 % 49 % 1005,9 hPa 0,0 l/m 29,0 km/h (5 Bft) O-NO 65 6 min
01.03.2018 10:50 -3,0 C -3,2 C -2,5 C 46 % 49 % 1006,9 hPa 0,0 l/m 18,2 km/h (3 Bft) SO 145 4 min
01.03.2018 10:55 -2,9 C -3,1 C -2,5 C 46 % 49 % 1006,9 hPa 0,0 l/m 22,4 km/h (4 Bft) NO 45 3 min
01.03.2018 11:00 -2,9 C -3,1 C -2,5 C 46 % 48 % 1006,9 hPa 0,0 l/m 22,4 km/h (4 Bft) NO 45 0 min
01.03.2018 11:05 -2,8 C -3,0 C -2,5 C 45 % 48 % 1006,9 hPa 0,0 l/m 19,4 km/h (3 Bft) W 265 12 min
01.03.2018 11:10 -2,8 C -2,9 C -2,5 C 45 % 47 % 1006,9 hPa 0,0 l/m 19,4 km/h (3 Bft) W 265 0 min
01.03.2018 11:15 -2,7 C -2,8 C -2,5 C 44 % 47 % 1006,9 hPa 0,0 l/m 24,8 km/h (4 Bft) N-NO 30 8 min
01.03.2018 11:20 -2,4 C -2,6 C -2,5 C 43 % 46 % 1005,9 hPa 0,0 l/m 24,8 km/h (4 Bft) O-NO 65 8 min
01.03.2018 11:25 -2,1 C -2,3 C -2,5 C 43 % 46 % 1005,9 hPa 0,0 l/m 27,8 km/h (5 Bft) O-SO 110 5 min
01.03.2018 11:30 -2,1 C -2,2 C -2,5 C 43 % 46 % 1005,9 hPa 0,0 l/m 27,8 km/h (5 Bft) O-SO 110 0 min
01.03.2018 11:35 -1,7 C -2,1 C -2,5 C 42 % 45 % 1006,9 hPa 0,0 l/m 21,8 km/h (4 Bft) NO 50 10 min
01.03.2018 11:40 -1,7 C -1,9 C -2,0 C 42 % 45 % 1006,9 hPa 0,0 l/m 21,8 km/h (4 Bft) NO 50 0 min
01.03.2018 11:45 -1,7 C -1,7 C -2,0 C 42 % 45 % 1006,9 hPa 0,0 l/m 21,8 km/h (4 Bft) NO 50 0 min
01.03.2018 11:50 -1,3 C -1,6 C -2,0 C 41 % 44 % 1005,9 hPa 0,0 l/m 18,2 km/h (3 Bft) NO 55 13 min
01.03.2018 11:55 -1,1 C -1,5 C -2,0 C 40 % 43 % 1005,9 hPa 0,0 l/m 15,7 km/h (3 Bft) O-NO 60 8 min
01.03.2018 12:00 -1,1 C -1,4 C -2,0 C 40 % 43 % 1005,9 hPa 0,0 l/m 23,6 km/h (4 Bft) S-SO 150 5 min
01.03.2018 12:05 -1,1 C -1,2 C -2,0 C 40 % 43 % 1005,9 hPa 0,0 l/m 28,2 km/h (5 Bft) NO 45 5 min
01.03.2018 12:10 -0,9 C -1,2 C -2,0 C 40 % 43 % 1005,9 hPa 0,0 l/m 27,8 km/h (5 Bft) O-NO 70 5 min
01.03.2018 12:15 -1,0 C -1,2 C -2,0 C 39 % 43 % 1005,9 hPa 0,0 l/m 21,2 km/h (4 Bft) O-NO 70 2 min
01.03.2018 12:20 -0,3 C -0,8 C -2,0 C 39 % 43 % 1004,9 hPa 0,0 l/m 29,8 km/h (5 Bft) SO 130 7 min
01.03.2018 12:25 -0,6 C -0,8 C -2,0 C 39 % 42 % 1004,9 hPa 0,0 l/m 20,6 km/h (4 Bft) O-SO 105 3 min
01.03.2018 12:30 -0,6 C -0,7 C -1,8 C 39 % 41 % 1004,9 hPa 0,0 l/m 20,6 km/h (4 Bft) O-SO 105 0 min
01.03.2018 12:35 -0,6 C -0,6 C -1,8 C 39 % 42 % 1004,9 hPa 0,0 l/m 20,6 km/h (4 Bft) O-SO 105 0 min
01.03.2018 12:40 -0,6 C -0,4 C -1,8 C 39 % 41 % 1004,9 hPa 0,0 l/m 20,6 km/h (4 Bft) O-SO 105 0 min
01.03.2018 12:45 -0,2 C -0,4 C -1,8 C 38 % 41 % 1004,9 hPa 0,0 l/m 29,0 km/h (5 Bft) NO 55 22 min
01.03.2018 12:50 0,0 C -0,3 C -1,6 C 37 % 40 % 1004,9 hPa 0,0 l/m 26,0 km/h (4 Bft) O 85 5 min
01.03.2018 12:55 0,0 C -0,2 C -1,6 C 37 % 40 % 1004,9 hPa 0,0 l/m 26,0 km/h (4 Bft) O 85 0 min
01.03.2018 13:00 0,0 C -0,2 C -1,6 C 37 % 40 % 1004,9 hPa 0,0 l/m 26,0 km/h (4 Bft) O 85 0 min
01.03.2018 13:05 0,0 C -0,2 C -1,6 C 37 % 40 % 1004,9 hPa 0,0 l/m 26,0 km/h (4 Bft) O 85 0 min
01.03.2018 13:10 0,0 C -0,2 C -1,6 C 37 % 40 % 1004,9 hPa 0,0 l/m 26,0 km/h (4 Bft) O 85 0 min
01.03.2018 13:15 -0,1 C -0,1 C -1,6 C 37 % 40 % 1004,9 hPa 0,0 l/m 29,8 km/h (5 Bft) O-SO 110 21 min
01.03.2018 13:20 -0,1 C -0,1 C -1,6 C 37 % 40 % 1003,9 hPa 0,0 l/m 29,8 km/h (5 Bft) O-SO 110 0 min
01.03.2018 13:25 -0,1 C 0,0 C -1,6 C 37 % 39 % 1003,9 hPa 0,0 l/m 29,8 km/h (5 Bft) O-SO 110 0 min
01.03.2018 13:30 0,3 C 0,0 C -1,6 C 36 % 39 % 1003,9 hPa 0,0 l/m 21,2 km/h (4 Bft) N 10 18 min
01.03.2018 13:35 0,5 C 0,1 C -1,4 C 36 % 39 % 1003,9 hPa 0,0 l/m 26,0 km/h (4 Bft) NO 40 5 min
01.03.2018 13:40 0,5 C 0,1 C -1,4 C 36 % 39 % 1003,9 hPa 0,0 l/m 26,0 km/h (4 Bft) NO 40 0 min
01.03.2018 13:45 0,5 C 0,2 C -1,4 C 36 % 39 % 1003,9 hPa 0,0 l/m 26,0 km/h (4 Bft) NO 40 0 min
01.03.2018 13:50 0,5 C 0,3 C -1,4 C 36 % 38 % 1003,9 hPa 0,0 l/m 26,0 km/h (4 Bft) NO 40 0 min
01.03.2018 13:55 0,5 C 0,2 C -1,4 C 36 % 38 % 1003,9 hPa 0,0 l/m 26,0 km/h (4 Bft) NO 40 0 min
01.03.2018 14:00 0,5 C 0,4 C -1,4 C 36 % 39 % 1003,9 hPa 0,0 l/m 21,8 km/h (4 Bft) O 80 25 min
01.03.2018 14:05 0,5 C 0,5 C -1,4 C 36 % 38 % 1003,9 hPa 0,0 l/m 21,8 km/h (4 Bft) O 80 0 min
01.03.2018 14:10 0,5 C 0,7 C -1,4 C 36 % 38 % 1003,9 hPa 0,0 l/m 21,8 km/h (4 Bft) O 80 0 min
01.03.2018 14:15 0,5 C 0,7 C -1,4 C 36 % 38 % 1003,9 hPa 0,0 l/m 21,8 km/h (4 Bft) O 80 0 min
01.03.2018 14:20 0,5 C 0,5 C -1,4 C 36 % 38 % 1002,9 hPa 0,0 l/m 21,8 km/h (4 Bft) O 80 0 min
01.03.2018 14:25 0,5 C 0,5 C -1,4 C 36 % 38 % 1002,9 hPa 0,0 l/m 21,8 km/h (4 Bft) O 80 0 min
01.03.2018 14:30 0,5 C 0,5 C -1,4 C 36 % 38 % 1002,9 hPa 0,0 l/m 21,8 km/h (4 Bft) O 80 0 min
01.03.2018 14:35 0,5 C 0,4 C -1,4 C 36 % 38 % 1002,9 hPa 0,0 l/m 21,8 km/h (4 Bft) O 80 0 min
01.03.2018 14:40 0,6 C 0,6 C -1,4 C 36 % 38 % 1002,9 hPa 0,0 l/m 30,9 km/h (5 Bft) N-NO 20 37 min
01.03.2018 14:45 0,7 C 0,8 C -1,4 C 36 % 39 % 1002,9 hPa 0,0 l/m 26,0 km/h (4 Bft) O-NO 65 2 min
01.03.2018 14:50 0,7 C 0,7 C -1,4 C 35 % 38 % 1002,9 hPa 0,0 l/m 26,3 km/h (4 Bft) N 10 8 min
01.03.2018 14:55 0,8 C 0,7 C -1,4 C 35 % 38 % 1002,9 hPa 0,0 l/m 29,8 km/h (5 Bft) SO 145 5 min
01.03.2018 15:00 0,8 C 0,7 C -1,4 C 35 % 38 % 1002,9 hPa 0,0 l/m 29,8 km/h (5 Bft) SO 145 0 min
01.03.2018 15:05 1,0 C 0,8 C -1,4 C 35 % 38 % 1001,9 hPa 0,0 l/m 25,4 km/h (4 Bft) O 100 10 min
01.03.2018 15:10 1,0 C 0,8 C -1,4 C 35 % 38 % 1001,9 hPa 0,0 l/m 25,4 km/h (4 Bft) O 90 2 min
01.03.2018 15:15 1,0 C 0,9 C -1,4 C 35 % 38 % 1001,9 hPa 0,0 l/m 25,4 km/h (4 Bft) O 90 0 min
01.03.2018 15:20 1,1 C 0,9 C -1,4 C 35 % 38 % 1002,9 hPa 0,0 l/m 23,0 km/h (4 Bft) NO 35 12 min
01.03.2018 15:25 1,2 C 0,9 C -1,4 C 35 % 37 % 1002,9 hPa 0,0 l/m 18,2 km/h (3 Bft) SO 135 6 min
01.03.2018 15:30 1,0 C 0,8 C -1,4 C 35 % 38 % 1002,9 hPa 0,0 l/m 29,4 km/h (5 Bft) O 80 4 min
01.03.2018 15:35 0,8 C 0,7 C -1,4 C 35 % 37 % 1002,9 hPa 0,0 l/m 32,1 km/h (5 Bft) O-NO 65 6 min
01.03.2018 15:40 0,9 C 0,7 C -1,4 C 35 % 38 % 1002,9 hPa 0,0 l/m 27,1 km/h (5 Bft) O-SO 120 3 min
01.03.2018 15:45 0,8 C 0,7 C -1,4 C 35 % 38 % 1002,9 hPa 0,0 l/m 26,3 km/h (4 Bft) NO 45 6 min
01.03.2018 15:50 0,7 C 0,6 C -1,4 C 36 % 38 % 1002,9 hPa 0,0 l/m 20,0 km/h (4 Bft) O-SO 115 3 min
01.03.2018 15:55 0,7 C 0,5 C -1,4 C 35 % 38 % 1002,9 hPa 0,0 l/m 24,2 km/h (4 Bft) NO 45 5 min
01.03.2018 16:00 0,9 C 0,6 C -1,4 C 35 % 38 % 1002,9 hPa 0,0 l/m 15,7 km/h (3 Bft) SO 130 5 min
01.03.2018 16:05 0,8 C 0,5 C -1,4 C 35 % 38 % 1001,9 hPa 0,0 l/m 24,2 km/h (4 Bft) S-SO 155 2 min
01.03.2018 16:10 0,8 C 0,5 C -1,4 C 35 % 38 % 1001,9 hPa 0,0 l/m 24,2 km/h (4 Bft) S-SO 155 0 min
01.03.2018 16:15 0,9 C 0,6 C -1,4 C 36 % 38 % 1001,9 hPa 0,0 l/m 16,9 km/h (3 Bft) O-SO 110 13 min
01.03.2018 16:20 0,8 C 0,6 C -1,4 C 35 % 38 % 1001,9 hPa 0,0 l/m 36,4 km/h (5 Bft) O-NO 60 3 min
01.03.2018 16:25 0,7 C 0,5 C -1,4 C 35 % 38 % 1001,9 hPa 0,0 l/m 28,6 km/h (5 Bft) O 100 5 min
01.03.2018 16:30 0,6 C 0,5 C -1,4 C 36 % 38 % 1001,9 hPa 0,0 l/m 30,2 km/h (5 Bft) SO 135 0 min
01.03.2018 16:35 0,7 C 0,4 C -1,4 C 36 % 38 % 1001,9 hPa 0,0 l/m 29,4 km/h (5 Bft) O-SO 105 5 min
01.03.2018 16:40 0,6 C 0,4 C -1,4 C 36 % 38 % 1001,9 hPa 0,0 l/m 19,4 km/h (3 Bft) O 100 1 min
01.03.2018 16:45 0,5 C 0,4 C -1,4 C 35 % 38 % 1001,9 hPa 0,0 l/m 24,8 km/h (4 Bft) O-SO 110 1 min
01.03.2018 16:50 0,5 C 0,4 C -1,2 C 36 % 38 % 1000,9 hPa 0,0 l/m 25,4 km/h (4 Bft) O-NO 60 5 min
01.03.2018 16:55 0,4 C 0,3 C -1,2 C 36 % 39 % 1000,9 hPa 0,0 l/m 23,0 km/h (4 Bft) O-NO 70 3 min
01.03.2018 17:00 0,4 C 0,2 C -1,2 C 36 % 38 % 1000,9 hPa 0,0 l/m 26,3 km/h (4 Bft) O 85 3 min
01.03.2018 17:05 0,4 C 0,2 C -1,2 C 36 % 39 % 1000,9 hPa 0,0 l/m 26,3 km/h (4 Bft) O 85 0 min
01.03.2018 17:10 0,3 C 0,2 C -1,2 C 36 % 39 % 1000,9 hPa 0,0 l/m 16,9 km/h (3 Bft) O-SO 110 10 min
01.03.2018 17:15 0,2 C 0,1 C -1,4 C 36 % 39 % 1000,9 hPa 0,0 l/m 27,8 km/h (5 Bft) N-NO 25 7 min
01.03.2018 17:20 0,0 C 0,0 C -1,4 C 36 % 39 % 1001,9 hPa 0,0 l/m 31,7 km/h (5 Bft) SO 135 3 min
01.03.2018 17:25 0,0 C 0,0 C -1,4 C 37 % 39 % 1001,9 hPa 0,0 l/m 28,6 km/h (5 Bft) O-SO 110 7 min
01.03.2018 17:30 0,0 C -0,1 C -1,4 C 37 % 39 % 1001,9 hPa 0,0 l/m 24,8 km/h (4 Bft) O-NO 65 0 min
01.03.2018 17:35 -0,1 C -0,2 C -1,4 C 37 % 39 % 1000,9 hPa 0,0 l/m 27,1 km/h (5 Bft) O 85 0 min
01.03.2018 17:40 -0,3 C -0,2 C -1,4 C 37 % 39 % 1000,9 hPa 0,0 l/m 32,1 km/h (5 Bft) O-NO 60 0 min
01.03.2018 17:45 -0,4 C -0,2 C -1,4 C 37 % 39 % 1000,9 hPa 0,0 l/m 19,4 km/h (3 Bft) O 90 0 min
01.03.2018 17:50 -0,5 C -0,3 C -1,4 C 37 % 40 % 1001,9 hPa 0,0 l/m 24,8 km/h (4 Bft) O 95 0 min
01.03.2018 17:55 -0,5 C -0,3 C -1,4 C 38 % 40 % 1001,9 hPa 0,0 l/m 21,8 km/h (4 Bft) O-NO 70 0 min
01.03.2018 18:00 -0,6 C -0,5 C -1,4 C 38 % 40 % 1001,9 hPa 0,0 l/m 28,6 km/h (5 Bft) SO 130 0 min
01.03.2018 18:05 -0,7 C -0,6 C -1,4 C 38 % 40 % 1001,9 hPa 0,0 l/m 21,2 km/h (4 Bft) O-SO 115 0 min
01.03.2018 18:10 -0,7 C -0,6 C -1,4 C 38 % 40 % 1001,9 hPa 0,0 l/m 28,2 km/h (5 Bft) O-NO 70 0 min
01.03.2018 18:15 -0,7 C -0,6 C -1,4 C 38 % 40 % 1001,9 hPa 0,0 l/m 28,2 km/h (5 Bft) O-NO 70 0 min
01.03.2018 18:20 -0,8 C -0,7 C -1,6 C 38 % 40 % 1001,9 hPa 0,0 l/m 22,4 km/h (4 Bft) NO 45 0 min
01.03.2018 18:25 -0,9 C -0,8 C -1,6 C 38 % 40 % 1001,9 hPa 0,0 l/m 18,2 km/h (3 Bft) SO 125 0 min
01.03.2018 18:30 -0,9 C -0,8 C -1,6 C 38 % 40 % 1001,9 hPa 0,0 l/m 17,6 km/h (3 Bft) O-SO 110 0 min
01.03.2018 18:35 -1,0 C -0,9 C -1,6 C 39 % 41 % 1001,9 hPa 0,0 l/m 27,4 km/h (5 Bft) O 90 0 min
01.03.2018 18:40 -1,1 C -0,9 C -1,6 C 39 % 41 % 1001,9 hPa 0,0 l/m 27,1 km/h (5 Bft) O 85 0 min
01.03.2018 18:45 -1,1 C -1,0 C -1,6 C 39 % 41 % 1001,9 hPa 0,0 l/m 24,2 km/h (4 Bft) O 90 0 min
01.03.2018 18:50 -1,2 C -1,0 C -1,6 C 39 % 41 % 1001,9 hPa 0,0 l/m 27,8 km/h (5 Bft) O 100 0 min
01.03.2018 18:55 -1,2 C -1,1 C -1,6 C 39 % 41 % 1001,9 hPa 0,0 l/m 27,8 km/h (5 Bft) O 100 0 min
01.03.2018 19:00 -1,3 C -1,2 C -1,6 C 40 % 42 % 1001,9 hPa 0,0 l/m 27,1 km/h (5 Bft) O-SO 105 0 min
01.03.2018 19:05 -1,3 C -1,2 C -1,6 C 40 % 42 % 1001,9 hPa 0,0 l/m 23,0 km/h (4 Bft) O-NO 60 0 min
01.03.2018 19:10 -1,3 C -1,2 C -1,6 C 40 % 42 % 1001,9 hPa 0,0 l/m 19,4 km/h (3 Bft) N-NO 30 0 min
01.03.2018 19:15 -1,4 C -1,2 C -1,6 C 40 % 42 % 1001,9 hPa 0,0 l/m 26,0 km/h (4 Bft) O-NO 65 0 min
01.03.2018 19:20 -1,4 C -1,3 C -1,6 C 41 % 42 % 1001,9 hPa 0,0 l/m 22,4 km/h (4 Bft) O 90 0 min
01.03.2018 19:25 -1,5 C -1,4 C -1,6 C 40 % 42 % 1001,9 hPa 0,0 l/m 27,4 km/h (5 Bft) NO 35 0 min
01.03.2018 19:30 -1,5 C -1,4 C -1,6 C 40 % 42 % 1001,9 hPa 0,0 l/m 27,4 km/h (5 Bft) NO 35 0 min
01.03.2018 19:35 -1,6 C -1,5 C -1,8 C 41 % 43 % 1001,9 hPa 0,0 l/m 23,0 km/h (4 Bft) O-NO 75 0 min
01.03.2018 19:40 -1,6 C -1,5 C -1,8 C 41 % 43 % 1001,9 hPa 0,0 l/m 23,0 km/h (4 Bft) O-NO 75 0 min
01.03.2018 19:45 -1,7 C -1,6 C -1,8 C 41 % 43 % 1001,9 hPa 0,0 l/m 25,4 km/h (4 Bft) O-NO 70 0 min
01.03.2018 19:50 -1,7 C -1,6 C -1,8 C 41 % 43 % 1001,9 hPa 0,0 l/m 25,4 km/h (4 Bft) O 80 0 min
01.03.2018 19:55 -1,8 C -1,7 C -1,8 C 41 % 43 % 1001,9 hPa 0,0 l/m 26,7 km/h (4 Bft) O 95 0 min
01.03.2018 20:00 -1,9 C -1,7 C -1,8 C 42 % 43 % 1001,9 hPa 0,0 l/m 18,8 km/h (3 Bft) O 85 0 min
01.03.2018 20:05 -1,9 C -1,7 C -1,8 C 42 % 43 % 1001,9 hPa 0,0 l/m 18,2 km/h (3 Bft) O-NO 70 0 min
01.03.2018 20:10 -2,0 C -1,8 C -1,8 C 42 % 44 % 1001,9 hPa 0,0 l/m 18,2 km/h (3 Bft) O 80 0 min
01.03.2018 20:15 -2,0 C -1,9 C -1,8 C 42 % 44 % 1001,9 hPa 0,0 l/m 25,4 km/h (4 Bft) O 95 0 min
01.03.2018 20:20 -2,0 C -1,9 C -1,8 C 42 % 44 % 1000,9 hPa 0,0 l/m 24,8 km/h (4 Bft) O-NO 65 0 min
01.03.2018 20:25 -2,1 C -1,9 C -1,8 C 42 % 44 % 1000,9 hPa 0,0 l/m 20,6 km/h (4 Bft) NO 55 0 min
01.03.2018 20:30 -2,1 C -2,0 C -1,8 C 43 % 44 % 1000,9 hPa 0,0 l/m 21,8 km/h (4 Bft) O-SO 115 0 min
01.03.2018 20:35 -2,2 C -2,0 C -1,8 C 43 % 45 % 1001,9 hPa 0,0 l/m 22,4 km/h (4 Bft) O 90 0 min
01.03.2018 20:40 -2,2 C -2,1 C -1,8 C 43 % 45 % 1001,9 hPa 0,0 l/m 15,7 km/h (3 Bft) O-SO 105 0 min
01.03.2018 20:45 -2,3 C -2,1 C -1,8 C 43 % 45 % 1001,9 hPa 0,0 l/m 24,8 km/h (4 Bft) O 100 0 min
01.03.2018 20:50 -2,4 C -2,1 C -1,8 C 44 % 45 % 1001,9 hPa 0,0 l/m 26,3 km/h (4 Bft) N 0 0 min
01.03.2018 20:55 -2,4 C -2,2 C -1,8 C 44 % 45 % 1001,9 hPa 0,0 l/m 13,3 km/h (3 Bft) O-SO 120 0 min
01.03.2018 21:00 -2,4 C -2,3 C -1,8 C 44 % 46 % 1001,9 hPa 0,0 l/m 15,1 km/h (3 Bft) O-SO 105 0 min
01.03.2018 21:05 -2,5 C -2,3 C -1,8 C 44 % 46 % 1000,9 hPa 0,0 l/m 21,2 km/h (4 Bft) NO 40 0 min
01.03.2018 21:10 -2,5 C -2,4 C -1,8 C 44 % 46 % 1000,9 hPa 0,0 l/m 14,5 km/h (3 Bft) O-NO 65 0 min
01.03.2018 21:15 -2,6 C -2,5 C -1,8 C 45 % 46 % 1000,9 hPa 0,0 l/m 16,3 km/h (3 Bft) NO 45 0 min
01.03.2018 21:20 -2,7 C -2,5 C -1,8 C 45 % 47 % 1000,9 hPa 0,0 l/m 18,8 km/h (3 Bft) O 95 0 min
01.03.2018 21:25 -2,7 C -2,6 C -1,8 C 45 % 47 % 1000,9 hPa 0,0 l/m 27,4 km/h (5 Bft) O-NO 60 0 min
01.03.2018 21:30 -2,8 C -2,6 C -1,8 C 45 % 47 % 1000,9 hPa 0,0 l/m 18,8 km/h (3 Bft) O-NO 65 0 min
01.03.2018 21:35 -2,9 C -2,7 C -1,8 C 46 % 47 % 1001,9 hPa 0,0 l/m 18,2 km/h (3 Bft) O 80 0 min
01.03.2018 21:40 -2,9 C -2,7 C -1,8 C 46 % 47 % 1001,9 hPa 0,0 l/m 18,2 km/h (3 Bft) NO 40 0 min
01.03.2018 21:45 -3,0 C -2,8 C -1,8 C 46 % 48 % 1001,9 hPa 0,0 l/m 21,2 km/h (4 Bft) O 85 0 min
01.03.2018 21:50 -3,0 C -2,8 C -1,8 C 46 % 48 % 1000,9 hPa 0,0 l/m 18,8 km/h (3 Bft) N-NO 25 0 min
01.03.2018 21:55 -3,0 C -2,9 C -1,8 C 46 % 48 % 1000,9 hPa 0,0 l/m 23,0 km/h (4 Bft) O-SO 120 0 min
01.03.2018 22:00 -3,1 C -2,9 C -1,8 C 46 % 48 % 1000,9 hPa 0,0 l/m 13,9 km/h (3 Bft) O 85 0 min
01.03.2018 22:05 -3,2 C -3,0 C -1,8 C 47 % 48 % 1000,9 hPa 0,0 l/m 19,4 km/h (3 Bft) SO 140 0 min
01.03.2018 22:10 -3,2 C -3,0 C -1,8 C 47 % 48 % 1000,9 hPa 0,0 l/m 13,9 km/h (3 Bft) O 95 0 min
01.03.2018 22:15 -3,2 C -3,0 C -1,8 C 47 % 49 % 1000,9 hPa 0,0 l/m 20,6 km/h (4 Bft) O-SO 110 0 min
01.03.2018 22:20 -3,3 C -3,1 C -1,8 C 47 % 49 % 1000,9 hPa 0,0 l/m 9,7 km/h (2 Bft) O 90 0 min
01.03.2018 22:25 -3,3 C -3,1 C -1,8 C 47 % 49 % 1000,9 hPa 0,0 l/m 18,8 km/h (3 Bft) N 5 0 min
01.03.2018 22:30 -3,4 C -3,2 C -1,8 C 47 % 49 % 1000,9 hPa 0,0 l/m 13,3 km/h (3 Bft) N-NO 25 0 min
01.03.2018 22:35 -3,4 C -3,2 C -1,8 C 47 % 49 % 1000,9 hPa 0,0 l/m 20,6 km/h (4 Bft) O 80 0 min
01.03.2018 22:40 -3,4 C -3,3 C -1,8 C 48 % 49 % 1000,9 hPa 0,0 l/m 13,9 km/h (3 Bft) O-NO 75 0 min
01.03.2018 22:45 -3,5 C -3,3 C -1,8 C 48 % 49 % 1000,9 hPa 0,0 l/m 11,5 km/h (2 Bft) O-SO 115 0 min
01.03.2018 22:50 -3,5 C -3,4 C -1,8 C 48 % 49 % 1000,9 hPa 0,0 l/m 16,9 km/h (3 Bft) N-NW 345 0 min
01.03.2018 22:55 -3,5 C -3,4 C -1,8 C 48 % 50 % 1000,9 hPa 0,0 l/m 20,0 km/h (4 Bft) O 95 0 min
01.03.2018 23:00 -3,6 C -3,5 C -1,8 C 48 % 50 % 1000,9 hPa 0,0 l/m 14,5 km/h (3 Bft) O 80 0 min
01.03.2018 23:05 -3,6 C -3,5 C -1,8 C 48 % 50 % 1000,9 hPa 0,0 l/m 26,3 km/h (4 Bft) O 100 0 min
01.03.2018 23:10 -3,6 C -3,5 C -1,8 C 48 % 50 % 1000,9 hPa 0,0 l/m 17,6 km/h (3 Bft) SO 125 0 min
01.03.2018 23:15 -3,7 C -3,5 C -1,8 C 48 % 50 % 1000,9 hPa 0,0 l/m 28,2 km/h (5 Bft) O 80 0 min
01.03.2018 23:20 -3,7 C -3,5 C -1,8 C 48 % 50 % 1000,9 hPa 0,0 l/m 25,4 km/h (4 Bft) O 95 0 min
01.03.2018 23:25 -3,7 C -3,6 C -1,8 C 49 % 50 % 1000,9 hPa 0,0 l/m 14,5 km/h (3 Bft) O 90 0 min
01.03.2018 23:30 -3,8 C -3,6 C -1,8 C 49 % 51 % 1000,9 hPa 0,0 l/m 10,9 km/h (2 Bft) O-NO 65 0 min
01.03.2018 23:35 -3,9 C -3,7 C -1,8 C 49 % 51 % 1000,9 hPa 0,0 l/m 23,6 km/h (4 Bft) O 100 0 min
01.03.2018 23:40 -3,9 C -3,7 C -1,8 C 49 % 51 % 1000,9 hPa 0,0 l/m 19,4 km/h (3 Bft) N-NW 335 0 min
01.03.2018 23:45 -3,9 C -3,8 C -1,8 C 49 % 51 % 1000,9 hPa 0,0 l/m 15,7 km/h (3 Bft) O 80 0 min
01.03.2018 23:50 -3,9 C -3,8 C -1,8 C 49 % 51 % 1000,9 hPa 0,0 l/m 13,3 km/h (3 Bft) O-NO 60 0 min
01.03.2018 23:55 -4,0 C -3,8 C -1,8 C 49 % 51 % 1000,9 hPa 0,0 l/m 17,6 km/h (3 Bft) O 95 0 min
_ Min-Zeit 00:00 00:00 07:25 14:50 15:25 16:50 - 00:25 - - -
Minimum _ -7,5 C -7,3 C -2,9 C 35 % 37 % 1000,9 hPa - 4,2 km/h (1 Bft) - - -
_ Max-Zeit 15:25 15:15 16:50 00:00 00:00 00:00 00:00 16:20 - - 14:40
Maximum _ 1,2 C 0,9 C -1,2 C 61 % 61 % 1014,0 hPa 0,0 l/m 36,4 km/h
O-NO (5 Bft)
- - 37 min
Durchschnitt _ -3,6 C -3,6 C -2,1 C 48 % 50 % 1006,0 hPa #0,0 l/m 19,8 km/h (4 Bft) O - #8:06 h